createdAt,value
2018-04-02T03:22:59.682Z,1000.73
2018-04-02T03:23:59.661Z,1000.76
2018-04-02T03:24:59.641Z,1000.74
2018-04-02T03:25:59.700Z,1000.73
2018-04-02T03:26:59.608Z,1000.71
2018-04-02T03:27:59.614Z,1000.73
2018-04-02T03:28:59.587Z,1000.72
2018-04-02T03:29:59.571Z,1000.76
2018-04-02T03:30:59.585Z,1000.74
2018-04-02T03:31:59.586Z,1000.72
2018-04-02T03:32:59.548Z,1000.69
2018-04-02T03:33:59.555Z,1000.69
2018-04-02T03:34:59.525Z,1000.70
2018-04-02T03:35:59.522Z,1000.69
2018-04-02T03:36:59.517Z,1000.69
2018-04-02T03:37:59.501Z,1000.70
2018-04-02T03:38:59.499Z,1000.69
2018-04-02T03:39:59.497Z,1000.66
2018-04-02T03:40:59.510Z,1000.67
2018-04-02T03:41:59.498Z,1000.66
2018-04-02T03:42:59.508Z,1000.66
2018-04-02T03:43:59.449Z,1000.65
2018-04-02T03:44:59.437Z,1000.65
2018-04-02T03:45:59.430Z,1000.62
2018-04-02T03:46:59.423Z,1000.64
2018-04-02T03:47:59.425Z,1000.65
2018-04-02T03:48:59.407Z,1000.63
2018-04-02T03:49:59.435Z,1000.62
2018-04-02T03:50:59.402Z,1000.67
2018-04-02T03:51:59.384Z,1000.67
2018-04-02T03:52:59.374Z,1000.63
2018-04-02T03:53:59.385Z,1000.63
2018-04-02T03:54:59.379Z,1000.66
2018-04-02T03:55:59.346Z,1000.61
2018-04-02T03:56:59.371Z,1000.65
2018-04-02T03:57:59.363Z,1000.60
2018-04-02T03:58:59.322Z,1000.63
2018-04-02T03:59:59.313Z,1000.65
2018-04-02T04:00:59.318Z,1000.64
2018-04-02T04:01:59.324Z,1000.61
2018-04-02T04:02:59.293Z,1000.62
2018-04-02T04:03:59.290Z,1000.59
2018-04-02T04:04:59.280Z,1000.64
2018-04-02T04:05:59.268Z,1000.59
2018-04-02T04:06:59.263Z,1000.60
2018-04-02T04:07:59.257Z,1000.56
2018-04-02T04:08:59.274Z,1000.53
2018-04-02T04:09:59.233Z,1000.51
2018-04-02T04:10:59.235Z,1000.47
2018-04-02T04:11:59.238Z,1000.47
2018-04-02T04:12:59.213Z,1000.48
2018-04-02T04:13:59.224Z,1000.47
2018-04-02T04:14:59.202Z,1000.48
2018-04-02T04:15:59.186Z,1000.47
2018-04-02T04:16:59.204Z,1000.49
2018-04-02T04:17:59.216Z,1000.50
2018-04-02T04:18:59.238Z,1000.50
2018-04-02T04:19:59.157Z,1000.51
2018-04-02T04:20:59.230Z,1000.48
2018-04-02T04:21:59.148Z,1000.48
2018-04-02T04:22:59.187Z,1000.42
2018-04-02T04:23:59.125Z,1000.45
2018-04-02T04:24:59.118Z,1000.43
2018-04-02T04:25:59.107Z,1000.46
2018-04-02T04:26:59.104Z,1000.43
2018-04-02T04:27:59.092Z,1000.42
2018-04-02T04:28:59.082Z,1000.40
2018-04-02T04:29:59.072Z,1000.42
2018-04-02T04:30:59.085Z,1000.40
2018-04-02T04:31:59.058Z,1000.47
2018-04-02T04:32:59.054Z,1000.46
2018-04-02T04:33:59.042Z,1000.44
2018-04-02T04:34:59.045Z,1000.42
2018-04-02T04:35:59.031Z,1000.45
2018-04-02T04:36:59.022Z,1000.45
2018-04-02T04:37:59.016Z,1000.46
2018-04-02T04:38:59.006Z,1000.47
2018-04-02T04:39:58.991Z,1000.45
2018-04-02T04:40:58.986Z,1000.44
2018-04-02T04:41:58.991Z,1000.42
2018-04-02T04:42:58.982Z,1000.42
2018-04-02T04:43:58.971Z,1000.40
2018-04-02T04:44:58.958Z,1000.40
2018-04-02T04:45:58.947Z,1000.40
2018-04-02T04:46:58.952Z,1000.39
2018-04-02T04:47:58.928Z,1000.41
2018-04-02T04:48:58.979Z,1000.41
2018-04-02T04:49:58.925Z,1000.39
2018-04-02T04:50:58.903Z,1000.38
2018-04-02T04:51:58.919Z,1000.38
2018-04-02T04:52:58.892Z,1000.35
2018-04-02T04:53:58.889Z,1000.36
2018-04-02T04:54:58.884Z,1000.37
2018-04-02T04:55:58.878Z,1000.35
2018-04-02T04:56:58.857Z,1000.35
2018-04-02T04:57:58.840Z,1000.34
2018-04-02T04:58:58.881Z,1000.36
2018-04-02T04:59:58.831Z,1000.35
2018-04-02T05:00:58.826Z,1000.34
2018-04-02T05:01:58.860Z,1000.34
2018-04-02T05:02:58.812Z,1000.39
2018-04-02T05:03:58.825Z,1000.34
2018-04-02T05:04:58.790Z,1000.35
2018-04-02T05:05:58.778Z,1000.37
2018-04-02T05:06:58.776Z,1000.38
2018-04-02T05:07:58.765Z,1000.36
2018-04-02T05:08:58.754Z,1000.38
2018-04-02T05:09:58.741Z,1000.38
2018-04-02T05:10:58.747Z,1000.36
2018-04-02T05:11:58.752Z,1000.33
2018-04-02T05:12:58.715Z,1000.32
2018-04-02T05:13:58.738Z,1000.35
2018-04-02T05:14:58.711Z,1000.31
2018-04-02T05:15:58.699Z,1000.33
2018-04-02T05:16:58.685Z,1000.29
2018-04-02T05:17:58.672Z,1000.28
2018-04-02T05:18:58.681Z,1000.31
2018-04-02T05:19:58.686Z,1000.31
2018-04-02T05:20:58.652Z,1000.33
2018-04-02T05:21:58.642Z,1000.33
2018-04-02T05:22:58.639Z,1000.27
2018-04-02T05:23:58.623Z,1000.24
2018-04-02T05:24:58.610Z,1000.23
2018-04-02T05:25:58.603Z,1000.25
2018-04-02T05:26:58.635Z,1000.26
2018-04-02T05:27:58.601Z,1000.27
2018-04-02T05:28:58.586Z,1000.27
2018-04-02T05:29:58.584Z,1000.22
2018-04-02T05:30:58.595Z,1000.22
2018-04-02T05:31:58.574Z,1000.21
2018-04-02T05:32:58.549Z,1000.27
2018-04-02T05:33:58.546Z,1000.30
2018-04-02T05:34:58.534Z,1000.29
2018-04-02T05:35:58.524Z,1000.27
2018-04-02T05:36:58.542Z,1000.31
2018-04-02T05:37:58.517Z,1000.25
2018-04-02T05:38:58.520Z,1000.29
2018-04-02T05:39:58.495Z,1000.24
2018-04-02T05:40:58.517Z,1000.22
2018-04-02T05:41:58.481Z,1000.24
2018-04-02T05:42:58.487Z,1000.20
2018-04-02T05:43:58.480Z,1000.22
2018-04-02T05:44:58.463Z,1000.25
2018-04-02T05:45:58.481Z,1000.22
2018-04-02T05:46:58.459Z,1000.24
2018-04-02T05:47:58.435Z,1000.32
2018-04-02T05:48:58.440Z,1000.35
2018-04-02T05:49:58.437Z,1000.42
2018-04-02T05:50:58.486Z,1000.37
2018-04-02T05:51:58.418Z,1000.41
2018-04-02T05:52:58.412Z,1000.45
2018-04-02T05:53:58.402Z,1000.36
2018-04-02T05:54:58.406Z,1000.28
2018-04-02T05:55:58.401Z,1000.28
2018-04-02T05:56:58.401Z,1000.25
2018-04-02T05:57:58.389Z,1000.27
2018-04-02T05:58:58.403Z,1000.25
2018-04-02T05:59:58.387Z,1000.22
2018-04-02T06:00:58.375Z,1000.23
2018-04-02T06:01:58.369Z,1000.22
2018-04-02T06:02:58.374Z,1000.22
2018-04-02T06:03:58.376Z,1000.22
2018-04-02T06:04:58.365Z,1000.21
2018-04-02T06:05:58.342Z,1000.18
2018-04-02T06:06:58.392Z,1000.22
2018-04-02T06:07:58.337Z,1000.22
2018-04-02T06:08:58.329Z,1000.21
2018-04-02T06:09:58.324Z,1000.17
2018-04-02T06:10:58.320Z,1000.19
2018-04-02T06:11:58.324Z,1000.15
2018-04-02T06:12:58.320Z,1000.12
2018-04-02T06:13:58.315Z,1000.11
2018-04-02T06:14:58.307Z,1000.09
2018-04-02T06:15:58.303Z,1000.08
2018-04-02T06:16:58.296Z,1000.10
2018-04-02T06:17:58.294Z,1000.08
2018-04-02T06:18:58.277Z,1000.09
2018-04-02T06:19:58.294Z,1000.04
2018-04-02T06:20:58.331Z,1000.04
2018-04-02T06:21:58.286Z,1000.07
2018-04-02T06:22:58.298Z,1000.06
2018-04-02T06:23:58.292Z,1000.04
2018-04-02T06:24:58.308Z,1000.04
2018-04-02T06:25:58.244Z,1000.05
2018-04-02T06:26:58.328Z,1000.02
2018-04-02T06:27:58.229Z,1000.08
2018-04-02T06:28:58.232Z,1000.03
2018-04-02T06:29:58.219Z,1000.05
2018-04-02T06:30:58.214Z,1000.01
2018-04-02T06:31:58.237Z,1000.03
2018-04-02T06:32:58.216Z,1000.06
2018-04-02T06:33:58.197Z,1000.05
2018-04-02T06:34:58.187Z,1000.02
2018-04-02T06:35:58.189Z,1000.00
2018-04-02T06:36:58.237Z,1000.03
2018-04-02T06:37:58.177Z,1000.04
2018-04-02T06:38:58.166Z,1000.08
2018-04-02T06:39:58.160Z,1000.07
2018-04-02T06:40:58.168Z,1000.03
2018-04-02T06:41:58.150Z,1000.06
2018-04-02T06:42:58.144Z,1000.01
2018-04-02T06:43:58.133Z,1000.02
2018-04-02T06:44:58.135Z,1000.04
2018-04-02T06:45:58.150Z,1000.01
2018-04-02T06:46:58.139Z,1000.02
2018-04-02T06:47:58.123Z,1000.03
2018-04-02T06:48:58.127Z,1000.07
2018-04-02T06:49:58.104Z,1000.05
2018-04-02T06:50:58.096Z,1000.04
2018-04-02T06:51:58.098Z,999.99
2018-04-02T06:52:58.108Z,1000.04
2018-04-02T06:53:58.082Z,1000.07
2018-04-02T06:54:58.102Z,1000.03
2018-04-02T06:55:58.068Z,1000.00
2018-04-02T06:56:58.070Z,999.97
2018-04-02T06:57:58.079Z,999.96
2018-04-02T06:58:58.048Z,1000.03
2018-04-02T06:59:58.109Z,1000.02
2018-04-02T07:00:58.044Z,999.94
2018-04-02T07:01:58.034Z,999.91
2018-04-02T07:02:58.038Z,999.89
2018-04-02T07:03:58.036Z,999.86
2018-04-02T07:04:58.348Z,999.85
2018-04-02T07:05:58.384Z,999.86
2018-04-02T07:06:58.008Z,999.79
2018-04-02T07:07:58.017Z,999.81
2018-04-02T07:08:57.994Z,999.84
2018-04-02T07:09:57.984Z,999.85
2018-04-02T07:10:57.988Z,999.82
2018-04-02T07:11:58.005Z,999.82
2018-04-02T07:12:57.966Z,999.82
2018-04-02T07:13:57.964Z,999.80
2018-04-02T07:14:57.958Z,999.73
2018-04-02T07:15:57.946Z,999.72
2018-04-02T07:16:57.957Z,999.75
2018-04-02T07:17:57.936Z,999.74
2018-04-02T07:18:57.940Z,999.73
2018-04-02T07:19:57.981Z,999.74
2018-04-02T07:20:57.929Z,999.74
2018-04-02T07:21:58.003Z,999.75
2018-04-02T07:22:57.943Z,999.74
2018-04-02T07:23:57.944Z,999.79
2018-04-02T07:24:57.896Z,999.77
2018-04-02T07:25:57.897Z,999.80
2018-04-02T07:26:57.886Z,999.81
2018-04-02T07:27:57.884Z,999.77
2018-04-02T07:28:57.888Z,999.81
2018-04-02T07:29:57.882Z,999.82
2018-04-02T07:30:57.880Z,999.85
2018-04-02T07:31:57.869Z,999.83
2018-04-02T07:32:57.859Z,999.84
2018-04-02T07:33:57.854Z,999.81
2018-04-02T07:34:57.856Z,999.79
2018-04-02T07:35:57.841Z,999.80
2018-04-02T07:36:57.835Z,999.79
2018-04-02T07:37:57.834Z,999.80
2018-04-02T07:38:57.855Z,999.75
2018-04-02T07:39:57.837Z,999.73
2018-04-02T07:40:57.825Z,999.75
2018-04-02T07:41:57.815Z,999.70
2018-04-02T07:42:57.812Z,999.70
2018-04-02T07:43:57.807Z,999.70
2018-04-02T07:44:57.801Z,999.66
2018-04-02T07:45:57.954Z,999.67
2018-04-02T07:46:57.815Z,999.60
2018-04-02T07:47:57.835Z,999.62
2018-04-02T07:48:57.818Z,999.63
2018-04-02T07:49:57.780Z,999.57
2018-04-02T07:50:57.780Z,999.53
2018-04-02T07:51:57.787Z,999.48
2018-04-02T07:52:57.770Z,999.50
2018-04-02T07:53:57.760Z,999.51
2018-04-02T07:54:57.753Z,999.52
2018-04-02T07:55:57.880Z,999.52
2018-04-02T07:56:57.777Z,999.52
2018-04-02T07:57:57.773Z,999.47
2018-04-02T07:58:57.747Z,999.44
2018-04-02T07:59:57.784Z,999.48
2018-04-02T08:00:57.749Z,999.47
2018-04-02T08:01:57.898Z,999.46
2018-04-02T08:02:57.779Z,999.40
2018-04-02T08:03:57.713Z,999.40
2018-04-02T08:04:57.760Z,999.44
2018-04-02T08:05:57.712Z,999.36
2018-04-02T08:06:57.707Z,999.35
2018-04-02T08:07:57.732Z,999.33
2018-04-02T08:08:57.719Z,999.35
2018-04-02T08:09:57.687Z,999.33
2018-04-02T08:10:57.684Z,999.30
2018-04-02T08:11:57.672Z,999.30
2018-04-02T08:13:06.527Z,999.29
2018-04-02T08:14:51.155Z,999.29
2018-04-02T08:15:51.120Z,999.33
2018-04-02T08:16:51.085Z,999.36
2018-04-02T08:17:51.125Z,999.36
2018-04-02T08:18:51.143Z,999.37
2018-04-02T08:21:13.338Z,999.33
2018-04-02T08:22:13.371Z,999.31
2018-04-02T08:23:13.285Z,999.31
2018-04-02T08:24:13.350Z,999.33
2018-04-02T08:25:13.248Z,999.32
2018-04-02T08:26:13.245Z,999.29
2018-04-02T08:27:13.242Z,999.26
2018-04-02T08:28:13.288Z,999.27
2018-04-02T08:29:13.226Z,999.22
2018-04-02T08:30:13.232Z,999.26
2018-04-02T08:31:13.228Z,999.24
2018-04-02T08:32:13.244Z,999.25
2018-04-02T08:33:13.234Z,999.24
2018-04-02T08:34:13.214Z,999.23
2018-04-02T08:35:13.203Z,999.23
2018-04-02T08:36:13.204Z,999.24
2018-04-02T08:37:13.207Z,999.24
2018-04-02T08:38:13.223Z,999.24
2018-04-02T08:39:13.191Z,999.21
2018-04-02T08:40:13.186Z,999.18
2018-04-02T08:41:13.207Z,999.17
2018-04-02T08:42:13.211Z,999.15
2018-04-02T08:43:13.172Z,999.18
2018-04-02T08:44:13.179Z,999.21
2018-04-02T08:45:13.151Z,999.24
2018-04-02T08:46:13.330Z,999.26
2018-04-02T08:47:13.276Z,999.25
2018-04-02T08:48:13.154Z,999.25
2018-04-02T08:49:13.153Z,999.27
2018-04-02T08:50:13.170Z,999.30
2018-04-02T08:51:13.141Z,999.32
2018-04-02T08:52:13.139Z,999.28
2018-04-02T08:53:13.150Z,999.26
2018-04-02T08:54:13.119Z,999.26
2018-04-02T08:55:13.120Z,999.27
2018-04-02T08:56:13.109Z,999.27
2018-04-02T08:57:13.106Z,999.25
2018-04-02T08:58:13.136Z,999.24
2018-04-02T08:59:13.131Z,999.22
2018-04-02T09:00:13.113Z,999.25
2018-04-02T09:01:13.120Z,999.21
2018-04-02T09:02:13.083Z,999.21
2018-04-02T09:03:13.094Z,999.22
2018-04-02T09:04:13.082Z,999.21
2018-04-02T09:05:13.077Z,999.14
2018-04-02T09:06:13.161Z,999.11
2018-04-02T09:07:13.117Z,999.11
2018-04-02T09:08:13.086Z,999.11
2018-04-02T09:09:13.099Z,999.09
2018-04-02T09:10:13.089Z,999.08
2018-04-02T09:11:13.090Z,999.08
2018-04-02T09:12:13.045Z,999.07
2018-04-02T09:13:13.043Z,999.04
2018-04-02T09:14:13.114Z,999.04
2018-04-02T09:15:13.040Z,999.02
2018-04-02T09:16:13.067Z,999.01
2018-04-02T09:17:13.033Z,999.00
2018-04-02T09:18:13.020Z,999.05
2018-04-02T09:19:13.030Z,999.06
2018-04-02T09:20:13.056Z,999.03
2018-04-02T09:21:13.083Z,999.02
2018-04-02T09:22:13.012Z,998.93
2018-04-02T09:23:13.002Z,998.94
2018-04-02T09:24:12.996Z,998.90
2018-04-02T09:25:12.984Z,998.88
2018-04-02T09:26:13.017Z,998.85
2018-04-02T09:27:12.982Z,998.86
2018-04-02T09:28:12.992Z,998.83
2018-04-02T09:29:12.974Z,998.84
2018-04-02T09:30:12.978Z,998.87
2018-04-02T09:31:12.983Z,998.86
2018-04-02T09:32:12.974Z,998.86
2018-04-02T09:33:12.960Z,998.85
2018-04-02T09:34:12.963Z,998.80
2018-04-02T09:35:12.958Z,998.80
2018-04-02T09:36:12.995Z,998.79
2018-04-02T09:37:13.040Z,998.74
2018-04-02T09:38:12.940Z,998.71
2018-04-02T09:39:21.668Z,998.71
2018-04-02T09:41:06.372Z,998.75
2018-04-02T09:42:06.335Z,998.77
2018-04-02T09:43:06.318Z,998.69
2018-04-02T09:44:06.371Z,998.69
2018-04-02T09:45:06.371Z,998.69
2018-04-02T09:46:06.442Z,998.68
2018-04-02T09:47:06.339Z,998.68
2018-04-02T09:48:06.336Z,998.62
2018-04-02T09:49:06.305Z,998.62
2018-04-02T09:50:06.301Z,998.63
2018-04-02T09:51:06.302Z,998.61
2018-04-02T09:52:06.323Z,998.60
2018-04-02T09:53:06.422Z,998.58
2018-04-02T09:54:06.323Z,998.55
2018-04-02T09:55:06.481Z,998.50
2018-04-02T09:56:06.333Z,998.48
2018-04-02T09:57:06.310Z,998.46
2018-04-02T09:58:06.314Z,998.40
2018-04-02T09:59:06.306Z,998.41
2018-04-02T10:00:06.330Z,998.39
2018-04-02T10:01:06.302Z,998.32
2018-04-02T10:02:06.282Z,998.33
2018-04-02T10:03:06.283Z,998.33
2018-04-02T10:04:06.337Z,998.31
2018-04-02T10:05:06.489Z,998.32
2018-04-02T10:06:06.305Z,998.30
2018-04-02T10:07:06.294Z,998.29
2018-04-02T10:08:06.259Z,998.28
2018-04-02T10:09:06.243Z,998.27
2018-04-02T10:10:06.284Z,998.23
2018-04-02T10:11:06.236Z,998.18
2018-04-02T10:12:06.235Z,998.18
2018-04-02T10:13:06.262Z,998.12
2018-04-02T10:14:06.248Z,998.16
2018-04-02T10:15:06.262Z,998.15
2018-04-02T10:16:06.375Z,998.09
2018-04-02T10:17:06.266Z,998.10
2018-04-02T10:18:06.277Z,998.07
2018-04-02T10:19:06.205Z,998.07
2018-04-02T10:20:06.214Z,998.02
2018-04-02T10:21:06.225Z,998.03
2018-04-02T10:22:06.310Z,997.96
2018-04-02T10:23:06.353Z,997.92
2018-04-02T10:24:06.268Z,997.92
2018-04-02T10:25:06.230Z,997.91
2018-04-02T10:26:06.245Z,997.84
2018-04-02T10:27:06.238Z,997.80
2018-04-02T10:28:06.195Z,997.84
2018-04-02T10:29:06.186Z,997.79
2018-04-02T10:30:06.185Z,997.82
2018-04-02T10:31:06.286Z,997.81
2018-04-02T10:32:06.180Z,997.84
2018-04-02T10:33:06.179Z,997.81
2018-04-02T10:34:06.181Z,997.81
2018-04-02T10:35:06.173Z,997.80
2018-04-02T10:36:06.195Z,997.82
2018-04-02T10:37:06.166Z,997.80
2018-04-02T10:38:06.190Z,997.79
2018-04-02T10:39:06.192Z,997.79
2018-04-02T10:40:06.168Z,997.79
2018-04-02T10:41:06.156Z,997.76
2018-04-02T10:42:06.160Z,997.73
2018-04-02T10:43:06.160Z,997.70
2018-04-02T10:44:06.155Z,997.69
2018-04-02T10:45:06.158Z,997.69
2018-04-02T10:46:06.161Z,997.71
2018-04-02T10:47:06.172Z,997.67
2018-04-02T10:48:06.165Z,997.67
2018-04-02T10:49:06.174Z,997.69
2018-04-02T10:50:06.162Z,997.70
2018-04-02T10:51:06.168Z,997.68
2018-04-02T10:52:06.138Z,997.72
2018-04-02T10:53:06.141Z,997.70
2018-04-02T10:54:06.143Z,997.68
2018-04-02T10:55:06.174Z,997.69
2018-04-02T10:56:06.130Z,997.71
2018-04-02T10:57:06.130Z,997.68
2018-04-02T10:58:06.145Z,997.70
2018-04-02T10:59:06.153Z,997.68
2018-04-02T11:00:06.140Z,997.71
2018-04-02T11:01:06.154Z,997.69
2018-04-02T11:02:06.141Z,997.71
2018-04-02T11:03:06.119Z,997.68
2018-04-02T11:04:06.150Z,997.64
2018-04-02T11:05:06.113Z,997.62
2018-04-02T11:06:06.116Z,997.61
2018-04-02T11:07:06.116Z,997.59
2018-04-02T11:08:06.121Z,997.57
2018-04-02T11:09:06.116Z,997.52
2018-04-02T11:10:06.108Z,997.49
2018-04-02T11:11:06.119Z,997.51
2018-04-02T11:12:14.742Z,997.47
2018-04-02T11:13:59.523Z,997.40
2018-04-02T11:14:59.499Z,997.38
2018-04-02T11:15:59.496Z,997.39
2018-04-02T11:16:59.506Z,997.29
2018-04-02T11:17:59.535Z,997.28
2018-04-02T11:19:08.144Z,997.26
2018-04-02T11:20:54.025Z,997.26
2018-04-02T11:21:54.005Z,997.23
2018-04-02T11:22:54.009Z,997.22
2018-04-02T11:23:54.018Z,997.15
2018-04-02T11:24:53.998Z,997.14
2018-04-02T11:25:54.005Z,997.10
2018-04-02T11:26:53.999Z,997.10
2018-04-02T11:27:53.997Z,997.05
2018-04-02T11:28:54.059Z,997.05
2018-04-02T11:29:53.992Z,997.06
2018-04-02T11:30:53.993Z,997.04
2018-04-02T11:31:53.989Z,997.02
2018-04-02T11:32:53.988Z,997.04
2018-04-02T11:33:54.039Z,997.02
2018-04-02T11:34:54.031Z,997.01
2018-04-02T11:35:54.041Z,996.96
2018-04-02T11:36:54.231Z,996.98
2018-04-02T11:37:54.105Z,996.97
2018-04-02T11:38:54.004Z,996.96
2018-04-02T11:39:54.065Z,996.97
2018-04-02T11:40:53.978Z,996.95
2018-04-02T11:41:54.127Z,996.91
2018-04-02T11:42:54.100Z,996.89
2018-04-02T11:43:54.071Z,996.87
2018-04-02T11:44:53.989Z,996.82
2018-04-02T11:47:26.293Z,996.75
2018-04-02T11:48:26.136Z,996.74
2018-04-02T11:49:26.128Z,996.69
2018-04-02T11:50:26.128Z,996.64
2018-04-02T11:51:26.201Z,996.67
2018-04-02T11:53:56.349Z,996.64
2018-04-02T11:54:58.402Z,996.63
2018-04-02T11:56:41.971Z,996.61
2018-04-02T11:57:41.935Z,996.63
2018-04-02T11:58:41.989Z,996.55
2018-04-02T11:59:41.971Z,996.56
2018-04-02T12:00:41.933Z,996.58
2018-04-02T12:01:41.934Z,996.55
2018-04-02T12:02:41.934Z,996.55
2018-04-02T12:03:42.056Z,996.57
2018-04-02T12:04:42.016Z,996.59
2018-04-02T12:05:41.962Z,996.55
2018-04-02T12:06:41.932Z,996.59
2018-04-02T12:07:41.931Z,996.57
2018-04-02T12:08:41.933Z,996.58
2018-04-02T12:09:41.932Z,996.53
2018-04-02T12:10:41.929Z,996.57
2018-04-02T12:11:41.946Z,996.55
2018-04-02T12:12:41.917Z,996.52
2018-04-02T12:13:41.915Z,996.52
2018-04-02T12:14:41.921Z,996.47
2018-04-02T12:15:41.917Z,996.51
2018-04-02T12:16:41.922Z,996.48
2018-04-02T12:17:41.953Z,996.44
2018-04-02T12:18:41.913Z,996.44
2018-04-02T12:19:41.909Z,996.42
2018-04-02T12:20:41.920Z,996.41
2018-04-02T12:21:42.079Z,996.42
2018-04-02T12:22:41.954Z,996.39
2018-04-02T12:23:41.945Z,996.36
2018-04-02T12:24:41.941Z,996.29
2018-04-02T12:25:41.909Z,996.32
2018-04-02T12:26:41.909Z,996.27
2018-04-02T12:27:41.914Z,996.27
2018-04-02T12:28:41.905Z,996.25
2018-04-02T12:29:41.986Z,996.23
2018-04-02T12:30:41.907Z,996.21
2018-04-02T12:31:41.944Z,996.19
2018-04-02T12:32:42.036Z,996.14
2018-04-02T12:33:41.912Z,996.15
2018-04-02T12:34:41.904Z,996.16
2018-04-02T12:35:41.956Z,996.11
2018-04-02T12:36:41.914Z,996.14
2018-04-02T12:37:41.898Z,996.12
2018-04-02T12:38:41.913Z,996.15
2018-04-02T12:39:41.980Z,996.11
2018-04-02T12:40:41.928Z,996.12
2018-04-02T12:41:41.901Z,996.13
2018-04-02T12:42:41.902Z,996.12
2018-04-02T12:43:41.902Z,996.11
2018-04-02T12:44:41.902Z,996.11
2018-04-02T12:45:41.899Z,996.04
2018-04-02T12:46:41.905Z,996.03
2018-04-02T12:47:41.904Z,996.03
2018-04-02T12:48:42.013Z,995.98
2018-04-02T12:49:41.956Z,995.99
2018-04-02T12:50:41.961Z,995.95
2018-04-02T12:51:43.081Z,995.93
2018-04-02T12:52:41.992Z,995.92
2018-04-02T12:53:41.978Z,995.88
2018-04-02T12:54:41.952Z,995.84
2018-04-02T12:55:41.978Z,995.79
2018-04-02T12:56:41.912Z,995.82
2018-04-02T12:57:41.902Z,995.80
2018-04-02T12:58:41.896Z,995.81
2018-04-02T12:59:41.903Z,995.77
2018-04-02T13:00:41.920Z,995.73
2018-04-02T13:01:41.900Z,995.75
2018-04-02T13:02:42.025Z,995.68
2018-04-02T13:03:41.898Z,995.66
2018-04-02T13:04:41.917Z,995.65
2018-04-02T13:05:41.971Z,995.65
2018-04-02T13:06:41.937Z,995.62
2018-04-02T13:07:41.929Z,995.60
2018-04-02T13:08:41.942Z,995.57
2018-04-02T13:09:41.944Z,995.56
2018-04-02T13:10:41.958Z,995.58
2018-04-02T13:11:41.924Z,995.54
2018-04-02T13:12:41.967Z,995.55
2018-04-02T13:13:41.966Z,995.51
2018-04-02T13:14:41.995Z,995.50
2018-04-02T13:15:42.383Z,995.50
2018-04-02T13:16:41.934Z,995.46
2018-04-02T13:17:42.100Z,995.49
2018-04-02T13:18:42.144Z,995.46
2018-04-02T13:19:42.035Z,995.43
2018-04-02T13:20:41.979Z,995.41
2018-04-02T13:21:41.956Z,995.40
2018-04-02T13:22:41.969Z,995.40
2018-04-02T13:23:41.974Z,995.37
2018-04-02T13:24:41.925Z,995.35
2018-04-02T13:25:41.902Z,995.31
2018-04-02T13:26:41.898Z,995.30
2018-04-02T13:27:41.899Z,995.29
2018-04-02T13:28:41.945Z,995.32
2018-04-02T13:29:41.901Z,995.29
2018-04-02T13:30:41.904Z,995.30
2018-04-02T13:31:41.961Z,995.27
2018-04-02T13:32:41.905Z,995.24
2018-04-02T13:33:41.917Z,995.22
2018-04-02T13:34:41.921Z,995.21
2018-04-02T13:35:41.922Z,995.20
2018-04-02T13:36:41.935Z,995.19
2018-04-02T13:37:41.923Z,995.15
2018-04-02T13:38:41.940Z,995.09
2018-04-02T13:39:41.943Z,995.08
2018-04-02T13:40:41.987Z,995.11
2018-04-02T13:41:42.046Z,995.05
2018-04-02T13:42:41.910Z,995.05
2018-04-02T13:43:41.929Z,995.03
2018-04-02T13:44:41.923Z,995.02
2018-04-02T13:45:41.917Z,995.02
2018-04-02T13:46:41.914Z,994.98
2018-04-02T13:47:41.926Z,994.94
2018-04-02T13:48:41.923Z,994.93
2018-04-02T13:49:41.917Z,994.93
2018-04-02T13:50:41.930Z,994.93
2018-04-02T13:51:42.096Z,994.96
2018-04-02T13:52:41.933Z,994.90
2018-04-02T13:53:41.959Z,994.92
2018-04-02T13:54:41.946Z,994.90
2018-04-02T13:55:41.998Z,994.89
2018-04-02T13:56:41.978Z,994.85
2018-04-02T13:57:41.931Z,994.87
2018-04-02T13:58:41.955Z,994.89
2018-04-02T13:59:41.929Z,994.85
2018-04-02T14:00:42.002Z,994.89
2018-04-02T14:01:41.937Z,994.83
2018-04-02T14:02:41.972Z,994.85
2018-04-02T14:03:41.984Z,994.82
2018-04-02T14:04:42.026Z,994.83
2018-04-02T14:05:41.947Z,994.80
2018-04-02T14:06:41.946Z,994.75
2018-04-02T14:07:41.984Z,994.77
2018-04-02T14:08:41.952Z,994.77
2018-04-02T14:09:41.985Z,994.77
2018-04-02T14:10:41.945Z,994.75
2018-04-02T14:13:04.091Z,994.77
2018-04-02T14:14:04.072Z,994.78
2018-04-02T14:15:04.066Z,994.73
2018-04-02T14:16:04.272Z,994.75
2018-04-02T14:17:04.096Z,994.73
2018-04-02T14:18:04.057Z,994.74
2018-04-02T14:19:12.826Z,994.72
2018-04-02T14:20:57.496Z,994.63
2018-04-02T14:21:57.482Z,994.61
2018-04-02T14:22:57.502Z,994.55
2018-04-02T14:23:57.577Z,994.50
2018-04-02T14:24:57.478Z,994.46
2018-04-02T14:25:57.504Z,994.42
2018-04-02T14:26:57.440Z,994.42
2018-04-02T14:27:57.447Z,994.41
2018-04-02T14:28:57.444Z,994.45
2018-04-02T14:29:57.447Z,994.43
2018-04-02T14:30:57.463Z,994.39
2018-04-02T14:31:57.456Z,994.39
2018-04-02T14:32:57.455Z,994.31
2018-04-02T14:33:57.457Z,994.29
2018-04-02T14:34:57.463Z,994.26
2018-04-02T14:35:57.466Z,994.22
2018-04-02T14:36:57.457Z,994.21
2018-04-02T14:37:57.458Z,994.23
2018-04-02T14:38:57.456Z,994.17
2018-04-02T14:39:57.467Z,994.19
2018-04-02T14:40:57.456Z,994.17
2018-04-02T14:41:57.476Z,994.14
2018-04-02T14:42:57.454Z,994.14
2018-04-02T14:43:57.467Z,994.12
2018-04-02T14:44:57.460Z,994.12
2018-04-02T14:45:57.461Z,994.08
2018-04-02T14:46:57.468Z,994.00
2018-04-02T14:47:57.472Z,993.96
2018-04-02T14:48:57.520Z,993.96
2018-04-02T14:49:57.526Z,993.88
2018-04-02T14:50:57.492Z,993.88
2018-04-02T14:51:57.490Z,993.87
2018-04-02T14:52:57.496Z,993.82
2018-04-02T14:53:57.543Z,993.81
2018-04-02T14:54:57.479Z,993.78
2018-04-02T14:55:57.482Z,993.76
2018-04-02T14:56:57.508Z,993.70
2018-04-02T14:57:57.473Z,993.66
2018-04-02T14:58:57.488Z,993.63
2018-04-02T14:59:57.566Z,993.63
2018-04-02T15:00:57.491Z,993.67
2018-04-02T15:01:57.493Z,993.67
2018-04-02T15:02:57.536Z,993.70
2018-04-02T15:03:57.543Z,993.71
2018-04-02T15:04:57.479Z,993.74
2018-04-02T15:05:57.495Z,993.75
2018-04-02T15:06:57.524Z,993.79
2018-04-02T15:07:57.563Z,993.76
2018-04-02T15:08:57.533Z,993.78
2018-04-02T15:09:57.507Z,993.82
2018-04-02T15:10:57.526Z,993.83
2018-04-02T15:11:57.528Z,993.82
2018-04-02T15:12:57.499Z,993.74
2018-04-02T15:13:57.484Z,993.77
2018-04-02T15:14:57.511Z,993.72
2018-04-02T15:15:57.491Z,993.71
2018-04-02T15:16:57.492Z,993.66
2018-04-02T15:17:57.494Z,993.64
2018-04-02T15:18:57.514Z,993.62
2018-04-02T15:19:57.506Z,993.60
2018-04-02T15:20:57.496Z,993.62
2018-04-02T15:21:57.494Z,993.61
2018-04-02T15:22:57.522Z,993.62
2018-04-02T15:23:57.516Z,993.59
2018-04-02T15:24:57.507Z,993.56
2018-04-02T15:25:57.508Z,993.53
2018-04-02T15:26:57.538Z,993.58
2018-04-02T15:27:57.512Z,993.54
2018-04-02T15:28:57.539Z,993.50
2018-04-02T15:29:57.514Z,993.48
2018-04-02T15:30:57.501Z,993.46
2018-04-02T15:31:57.507Z,993.45
2018-04-02T15:32:57.515Z,993.43
2018-04-02T15:33:57.506Z,993.37
2018-04-02T15:34:57.518Z,993.38
2018-04-02T15:35:57.520Z,993.39
2018-04-02T15:36:57.532Z,993.43
2018-04-02T15:37:57.531Z,993.46
2018-04-02T15:38:57.541Z,993.47
2018-04-02T15:39:57.519Z,993.42
2018-04-02T15:40:57.523Z,993.42
2018-04-02T15:41:57.524Z,993.41
2018-04-02T15:42:57.525Z,993.42
2018-04-02T15:43:57.560Z,993.41
2018-04-02T15:44:57.538Z,993.43
2018-04-02T15:45:57.513Z,993.45
2018-04-02T15:46:57.552Z,993.43
2018-04-02T15:47:57.530Z,993.44
2018-04-02T15:48:57.526Z,993.42
2018-04-02T15:49:57.517Z,993.47
2018-04-02T15:50:57.584Z,993.48
2018-04-02T15:51:57.516Z,993.47
2018-04-02T15:52:57.522Z,993.45
2018-04-02T15:53:57.520Z,993.45
2018-04-02T15:54:57.528Z,993.42